Adobe Reservoir




Date Battery Voltage (V) Panel Temperature (degF) Reservoir Height (ft) Reservoir Acre Feet (AF) Blue Cut-Clipper-Western Meter (cfs) Hunter Plant Meter (cfs) Air Temperature (degF) Blue Cut-Clipper-Western Meter GPM (gpm) Hunter Plant Meter GPM (gpm) Reservoir Elevation (ft) Battery Voltage 24 (V) Hunter Plant Meter Total Gallons (gal) Pond Battery Voltage (V) Pond 24V Battery Voltage (V) Pipe PSI (PSI) K Gallons Total (gal) Signal Strength (db) Call Fails (ea) Total Fails (ea) Tries (ea) Water Level Sensor Upper Mammoth Meter (gpm) Upper Mammoth Meter (cfs)
07/01/2017 12.3 27.3 96.4 1,057 55.3 9.8 66 24,837 4,401 5,996.4 29.4 12.2 26.5 23.3 4,934,715.00 0.00 3,837.57 8.55
07/02/2017 12.3 27.9 96.6 1,072 54.1 8.6 66 24,261 3,877 5,996.6 28.9 12.2 26.3 23.6 4,940,274.00 0.00 3,382.71 7.54
07/03/2017 12.3 27.0 96.9 1,093 48.7 10.9 65 21,858 4,895 5,996.9 29.3 12.2 26.5 24.0 4,947,339.00 0.00 3,441.81 7.67
07/04/2017 12.3 28.2 97.1 1,108 50.0 10.3 65 22,434 4,640 5,997.1 29.3 12.2 26.4 24.1 4,954,076.00 0.00 3,091.04 6.89
07/05/2017 12.3 28.7 97.4 1,130 43.1 11.1 64 19,337 4,990 5,997.4 29.4 12.2 26.5 24.7 4,961,291.00 0.00 3,269.24 7.28
07/06/2017 12.3 29.3 97.3 1,122 41.0 14.1 64 18,422 6,305 5,997.3 29.3 12.2 26.4 24.5 4,970,509.00 0.00 3,722.92 8.29
07/07/2017 12.3 28.8 96.9 1,095 42.7 14.4 64 19,147 6,482 5,996.9 29.2 12.2 26.4 24.3 4,980,005.00 0.00 3,675.21 8.19
07/08/2017 12.3 29.2 96.5 1,059 45.2 13.2 64 20,303 5,901 5,996.5 29.0 12.2 26.3 24.0 4,988,647.00 0.00 3,349.10 7.46
07/09/2017 12.3 28.7 96.2 1,039 35.5 14.8 64 15,938 6,650 5,996.2 28.9 12.2 26.3 24.6 4,998,390.00 0.00 2,311.39 5.15
07/10/2017 12.3 27.9 96.1 1,028 36.1 11.8 64 16,218 5,316 5,996.1 28.7 12.2 26.3 24.5 5,006,173.00 0.00 3,492.85 7.78
07/11/2017 12.3 27.0 95.9 1,015 36.9 13.0 64 16,566 5,824 5,995.9 28.6 12.2 26.2 24.3 5,014,713.00 0.00 3,711.18 8.27
07/12/2017 12.3 26.3 95.9 1,011 34.9 12.2 63 15,646 5,472 5,995.9 28.7 12.2 26.4 24.5 5,022,736.00 0.00 3,350.76 7.47
07/13/2017 12.3 25.8 96.1 1,029 31.0 12.6 63 13,914 5,634 5,996.1 28.8 12.2 26.3 24.7 5,030,985.00 63.50 3,461.67 7.71
07/14/2017 12.3 27.1 96.2 1,040 33.8 11.9 63 15,155 5,360 5,996.2 29.2 12.2 26.5 24.7 5,038,857.00 0.00 3,551.46 7.91
07/15/2017 12.3 28.4 96.5 1,061 28.4 13.0 63 12,746 5,855 5,996.5 29.4 12.2 26.5 25.2 5,047,441.00 0.00 2,560.63 5.71
07/16/2017 12.3 28.2 96.9 1,091 30.9 9.2 63 13,850 4,143 5,996.9 29.3 12.2 26.4 25.4 5,053,529.00 0.00 1,759.51 3.92
07/17/2017 12.3 28.3 97.1 1,112 37.7 10.2 63 16,906 4,577 5,997.1 29.3 12.2 26.4 25.0 5,060,244.00 0.00 2,765.28 6.16
07/18/2017 12.3 28.5 97.0 1,099 35.7 18.0 63 16,015 8,059 5,997.0 29.7 12.2 26.5 24.6 5,071,959.00 0.00 3,094.79 6.90
07/19/2017 12.3 28.7 96.6 1,069 42.8 19.2 64 19,203 8,633 5,996.6 28.6 12.2 26.4 24.0 5,084,223.00 0.00 3,038.68 6.77
07/20/2017 12.3 27.4 96.2 1,041 40.0 12.5 64 17,959 5,594 5,996.2 28.3 12.2 26.4 24.3 5,092,137.00 0.00 3,244.24 7.23
07/21/2017 12.3 26.6 95.4 973 30.0 10.6 64 13,466 4,763 5,995.4 28.4 12.2 26.4 24.7 5,098,870.00 0.00 2,558.96 5.70
07/22/2017 12.3 26.1 95.0 947 23.6 5.4 64 10,607 2,422 5,995.0 28.6 12.2 26.5 25.1 5,102,291.00 0.00 1,798.26 4.01
07/23/2017 12.3 27.4 95.3 972 26.3 2.6 64 11,785 1,166 5,995.3 28.9 12.2 26.6 25.3 5,103,933.00 0.00 1,162.15 2.59
07/24/2017 12.3 28.4 95.5 988 34.1 10.3 64 15,284 4,622 5,995.5 28.8 12.2 26.5 24.6 5,110,475.00 0.00 1,731.94 3.86
07/25/2017 12.3 26.1 95.2 964 23.2 11.1 65 10,426 4,977 5,995.2 28.6 12.2 26.3 25.0 5,117,513.00 0.00 1,212.92 2.70
07/26/2017 12.3 25.2 94.8 931 11.8 11.8 65 5,280 5,301 5,994.8 29.0 12.2 26.6 25.3 5,125,005.00 0.00 1,286.67 2.87
07/27/2017 12.3 26.9 95.3 971 13.8 9.1 65 6,183 4,089 5,995.3 29.3 12.2 26.6 25.5 5,130,771.00 0.00 1,076.32 2.40
07/28/2017 12.3 26.7 95.9 1,018 15.9 8.7 65 7,120 3,893 5,995.9 28.8 12.2 26.5 25.7 5,136,254.00 0.00 1,159.38 2.58
07/29/2017 12.3 26.4 96.4 1,050 20.4 7.1 64 9,161 3,200 5,996.4 29.3 12.2 26.6 25.8 5,140,758.00 0.00 792.57 1.77
07/30/2017 12.3 27.5 96.6 1,067 24.7 9.4 64 11,079 4,201 5,996.6 29.1 12.2 26.5 25.7 5,146,678.00 0.00 710.07 1.58
07/31/2017 12.3 27.3 96.7 1,076 31.6 7.1 64 14,201 3,164 5,996.7 29.3 12.2 26.6 25.4 5,151,138.00 0.00 1,539.58 3.43
Average 34.2 11.1 5.69
Maximum 55.3 19.2 8.55
Minimum 11.8 2.6 1.58
Total Volume (AF) 2,100.4 682.2 349.68